Flight Track Log - Related Links

Times and Time Zones

All times are in EDT time to prevent confusion due to time zone crossing. See the GGN7281 flight status page for this flight to view local times or setup timezone preferences in your user account.

Time Position Orientation Groundspeed Altitude Reporting Facility
EDT Latitude Longitude Course Direction KTS MPH feet Rate Location/Type
Fri 11:13:19 AM 42.7361 -73.8111 220° Southwest 135 155 1,000  Level Boston Center
Fri 11:14:44 AM 42.7022 -73.8500 220° Southwest 160 184 4,100 2,110 Climbing Boston Center
Fri 11:15:44 AM 42.7161 -73.9125 248° West 166 191 6,100 1,900 Climbing Boston Center
Fri 11:16:44 AM 42.7192 -73.9803 274° West 172 198 7,900 1,750 Climbing Boston Center
Fri 11:17:44 AM 42.7244 -74.0511 276° West 184 212 9,600 1,750 Climbing Boston Center
Fri 11:18:44 AM 42.7278 -74.1219 274° West 189 217 11,400 1,700 Climbing Boston Center
Fri 11:19:44 AM 42.7328 -74.1925 276° West 203 234 13,000 1,700 Climbing Boston Center
Fri 11:20:44 AM 42.7378 -74.2747 275° West 203 234 14,800 1,650 Climbing Boston Center
Fri 11:21:44 AM 42.7408 -74.3483 273° West 203 234 16,300 1,650 Climbing Boston Center
Fri 11:22:44 AM 42.7478 -74.4333 276° West 213 245 18,100 1,450 Climbing Boston Center
Fri 11:23:44 AM 42.7525 -74.5128 275° West 218 251 19,200 950 Climbing Boston Center
Fri 11:24:44 AM 42.7572 -74.5919 275° West 218 251 20,000 400 Climbing Boston Center
Fri 11:25:44 AM 42.7636 -74.6914 275° West 241 277 20,000  Level Boston Center
Fri 11:26:44 AM 42.7700 -74.7961 275° West 267 307 20,000  Level Boston Center
Fri 11:27:44 AM 42.7739 -74.9039 273° West 277 319 20,000  Level Boston Center
Fri 11:28:44 AM 42.7819 -75.0117 276° West 282 325 20,000  Level Boston Center
Fri 11:29:44 AM 42.7878 -75.1194 274° West 287 330 20,000  Level Boston Center
Fri 11:30:44 AM 42.7933 -75.2300 274° West 292 336 20,000  Level Boston Center
Fri 11:31:44 AM 42.7972 -75.3236 273° West 292 336 20,000  Level Boston Center
Fri 11:32:44 AM 42.8050 -75.4344 276° West 292 336 20,000  Level Boston Center
Fri 11:33:44 AM 42.8083 -75.5422 272° West 292 336 20,000  Level Boston Center
Fri 11:34:56 AM 42.8172 -75.6700 275° West 292 336 20,000  Level Boston Center
Fri 11:35:56 AM 42.8225 -75.7778 274° West 292 336 20,000  Level Boston Center
Fri 11:36:56 AM 42.8275 -75.8858 274° West 292 336 20,000  Level Boston Center
Fri 11:37:56 AM 42.8347 -75.9936 275° West 292 336 20,000  Level Boston Center
Fri 11:39:35 AM 42.8433 -76.1822 274° West 272 313 20,000  Level Cleveland Center
Fri 11:40:42 AM 42.8333 -76.2667 261° West 280 322 20,000  Level Toronto Center
Fri 11:41:42 AM 42.8333 -76.3833 270° West 290 334 20,000  Level Toronto Center
Fri 11:42:42 AM 42.8500 -76.5000 281° West 280 322 20,000  Level Toronto Center
Fri 11:43:42 AM 42.8500 -76.6167 270° West 290 334 20,000  Level Toronto Center
Fri 11:44:42 AM 42.8667 -76.7000 285° West 290 334 20,000  Level Toronto Center
Fri 11:45:42 AM 42.8667 -76.8167 270° West 290 334 20,000  Level Toronto Center
Fri 11:46:42 AM 42.8667 -76.9333 270° West 290 334 20,000  Level Toronto Center
Fri 11:47:35 AM 42.8836 -77.0553 281° West 289 333 20,000  Level Cleveland Center
Fri 11:48:35 AM 42.9075 -77.1561 288° West 289 333 20,000  Level Cleveland Center
Fri 11:49:35 AM 42.9294 -77.2597 286° West 289 333 20,000  Level Cleveland Center
Fri 11:50:35 AM 42.9489 -77.3636 284° West 289 333 20,000  Level Cleveland Center
Fri 11:51:35 AM 42.9683 -77.4647 285° West 289 333 20,000 -500 Level Cleveland Center
Fri 11:52:35 AM 42.9878 -77.5717 284° West 289 333 19,000 -900 Descending Cleveland Center
Fri 11:53:35 AM 43.0075 -77.6844 283° West 296 341 18,200 -600 Descending Cleveland Center
Fri 11:54:35 AM 43.0289 -77.7942 285° West 296 341 17,800 -545 Descending Cleveland Center
Fri 11:55:36 AM 43.0481 -77.9042 283° West 296 341 17,100 -850 Descending Cleveland Center
Fri 11:56:35 AM 43.0672 -78.0114 284° West 296 341 16,100 -950 Descending Cleveland Center
Fri 11:57:36 AM 43.0883 -78.1214 285° West 296 341 15,200 -992 Descending Cleveland Center
Fri 11:58:36 AM 43.1075 -78.2344 283° West 296 341 14,100 -600 Descending Cleveland Center
Fri 11:59:36 AM 43.1261 -78.3389 284° West 296 341 14,000 -50 Descending Cleveland Center
Fri 12:00:35 PM 43.1469 -78.4406 286° West 296 341 14,000  Level Cleveland Center
Fri 12:01:35 PM 43.1633 -78.5425 282° West 291 335 14,000  Level Cleveland Center
Fri 12:02:35 PM 43.1797 -78.6444 282° West 286 329 14,000  Level Cleveland Center
Fri 12:03:35 PM 43.1981 -78.7464 284° West 279 321 14,000  Level Cleveland Center
Fri 12:05:43 PM 43.2333 -78.9500 283° West 280 322 14,000  Level Toronto Center

Login

Don't have an account? Register now (free) for customized features, flight alerts, and more!